Wednesday, September 19, 2018, 7:24 PM GMT
Back to Local

CYWA, Petawawa, Ont.

Location: , , Canada Lat: 45.95
Local Time: 7:24 PM GMT (19:24 GMT) Lon: -77.317
Time Zone: GMT Elev: 426 ft

Show me the last for .
Show Coded

Time T Td Feel RH Dir Speed Gust Alt SLP Vis Weather Sky Remarks
2018-09-19 18:00 59 46 - 62 80° 3 - 30.11 30.12 9 BKN029 BKN079 None
2018-09-19 17:00 57 46 - 67 50° 6 - 30.10 30.11 9 OVC026 None
2018-09-19 16:47 57 46 - 67 40° 6 - 30.09 - 9 OVC026 None
2018-09-19 16:00 55 46 - 71 30° 5 - 30.11 30.12 9 OVC022 None
2018-09-19 15:00 54 46 - 76 330° 6 - 30.11 30.12 9 OVC018 None
2018-09-19 14:00 54 46 - 76 350° 13 - 30.10 30.11 9 OVC018 OVC075 None
2018-09-19 13:51 54 46 - 76 360° 10 - 30.10 - 9 OVC018 OVC075 None
2018-09-19 13:35 54 46 - 76 350° 9 - 30.10 - 9 FEW009 OVC013 OVC075 None
2018-09-19 13:16 52 50 - 93 330° 12 - 30.09 - 9 OVC009 OVC075 None
2018-09-19 13:00 52 50 - 93 340° 10 - 30.09 30.10 9 OVC013 None
2018-09-19 12:45 52 50 - 93 340° 9 - 30.08 - 9 FEW006 OVC011 None
2018-09-19 12:16 52 50 - 93 340° 9 - 30.08 - 3 OVC009 None
2018-09-19 12:00 52 48 - 87 340° 7 - 30.08 30.08 9 OVC012 None
2018-09-19 11:26 52 48 - 87 340° 8 - 30.06 - 9 OVC014 None
2018-09-19 11:00 52 48 - 87 340° 7 - 30.05 30.06 9 FEW016 OVC021 None
2018-09-19 10:01 52 48 - 87 340° 7 - 30.03 - 9 OVC016 None
2018-09-19 10:00 52 48 - 87 340° 7 - 30.03 30.03 9 OVC014 None
2018-09-19 09:08 54 48 - 81 340° 7 - 30.01 - 9 OVC014 None
2018-09-19 09:00 54 48 - 81 340° 7 - 30.01 30.01 9 OVC017 None
2018-09-19 08:00 54 48 - 81 340° 7 - 29.99 30.00 9 OVC019 None
2018-09-19 07:35 54 48 - 81 320° 6 - 29.98 - 9 OVC023 None
2018-09-19 07:00 52 50 - 93 320° 8 - 29.97 29.98 9 OVC029 None
2018-09-19 06:00 52 48 - 87 320° 7 - 29.97 29.98 9 OVC033 None
2018-09-19 05:00 52 48 - 87 280° 3 - 29.96 29.97 9 OVC033 None
2018-09-19 04:00 54 50 - 87 280° 3 - 29.97 29.98 9 BKN035 None
2018-09-19 03:00 55 50 - 82 320° 5 - 29.94 29.95 9 CLR None
2018-09-19 02:00 55 50 - 82 340° 7 - 29.93 29.94 9 CLR None
2018-09-19 01:00 57 52 - 82 340° 9 - 29.92 29.93 9 CLR None
2018-09-19 00:00 59 52 - 77 310° 8 - 29.92 29.93 9 FEW036 FEW090 None
2018-09-18 23:00 63 54 - 72 320° 7 - 29.89 29.90 9 SCT034 SCT071 None
2018-09-18 22:00 66 54 - 63 320° 9 - 29.87 29.88 9 CLR None
2018-09-18 21:00 68 54 - 60 330° 10 - 29.86 29.86 9 CLR None
2018-09-18 20:00 68 54 - 60 310° 6 - 29.85 29.85 9 CLR None

Support USWX by starting your Amazon purchase here.